Pagrindinis puslapis
METAR-TAF:

METAR-TAF

Oro uostai :

Viljavisensijas, Kolumbija

platuma: 04-10N, ilguma: 073-37W, Aukštis: 423 m

Dabartinis oras

Ataskaita buvo paskelbta 40 minutes, ne 00:00 UTC
Vėjas 4 kt iš Vakarų
Temperatūra 24°C
Drėgmė 89%
Slėgis 1010 hPa
Matomumas 10 km arba daugiau
Mažai debesys ne aukštis 2000 ft
Su prošvaistėmis ne aukštis 20000 ft

METAR: SKVV 230000Z 28004KT 9999 FEW020 BKN200 24/22 A2983

Laikas: 19:40 (00:40 UTC)


TAF: trūkstamas

Orai ataskaitas ir orų prognozės (METAR, TAF).

turimą stotys yra geltonos ir raudonos taškus žemėlapyje.

Perkelti pele per norėdami pamatyti stoties vardą.

Tada spustelėkite, norėdami matyti oro stebėjimo ir prognozės.

Norėdami pakeisti žemėlapį: spustelėkite ant žalios mygtukų su juodo kryžiaus žemyn,; žalią mygtuką su brūkšneliu, jei norite nutolinti; arba žalių rodyklių gretimoms žemėlapius.


METAR-TAF: